Terminal Aerodrome Forecast
Issued by NWS Duluth, MN

Home | Current Version | Previous Version | Text Only | Print | Product List | Glossary On
Versions: 1 2 3 4 5 6 7 8 9 10 11 12 13 14 15 16 17 18 19
000
FTUS43 KDLH 240600 AAA
TAFDLH
TAF AMD
KDLH 240613Z 2406/2506 11010KT 5SM -RA BKN007 OVC012
     FM240800 10010KT 5SM -DZ BR OVC007
     FM241300 10014KT 3SM -RA BR OVC007
     FM242100 08012KT 2SM -SNRA BR OVC006
     FM250300 05005KT 3SM -DZSN BR OVC005=

USA.gov is the U.S. government's official web portal to all federal, state and local government web resources and services.